createdAt,value
2022-12-28T00:00:14.007Z,27.26
2022-12-28T00:01:13.932Z,27.14
2022-12-28T00:02:13.925Z,27.20
2022-12-28T00:03:13.908Z,27.10
2022-12-28T00:04:13.853Z,27.08
2022-12-28T00:05:13.827Z,27.14
2022-12-28T00:06:13.787Z,27.17
2022-12-28T00:07:13.770Z,27.12
2022-12-28T00:08:13.743Z,27.28
2022-12-28T00:09:13.721Z,27.31
2022-12-28T00:10:13.690Z,27.34
2022-12-28T00:11:20.302Z,27.22
2022-12-28T00:12:14.638Z,27.30
2022-12-28T00:13:13.614Z,27.12
2022-12-28T00:14:13.591Z,27.21
2022-12-28T00:15:13.569Z,27.13
2022-12-28T00:16:13.608Z,27.15
2022-12-28T00:17:13.524Z,27.19
2022-12-28T00:18:13.511Z,27.10
2022-12-28T00:19:13.503Z,27.17
2022-12-28T00:20:13.456Z,27.10
2022-12-28T00:21:13.433Z,27.24
2022-12-28T00:22:13.409Z,27.23
2022-12-28T00:23:13.387Z,27.25
2022-12-28T00:24:13.360Z,27.27
2022-12-28T00:25:13.354Z,27.19
2022-12-28T00:26:13.319Z,27.18
2022-12-28T00:27:13.289Z,27.17
2022-12-28T00:28:13.266Z,27.27
2022-12-28T00:29:13.241Z,27.17
2022-12-28T00:30:13.223Z,27.31
2022-12-28T00:31:13.220Z,27.23
2022-12-28T00:32:13.156Z,27.26
2022-12-28T00:33:13.128Z,27.23
2022-12-28T00:34:13.097Z,27.17
2022-12-28T00:35:13.081Z,27.26
2022-12-28T00:36:13.054Z,27.11
2022-12-28T00:37:13.457Z,27.12
2022-12-28T00:38:12.995Z,27.20
2022-12-28T00:39:12.991Z,27.22
2022-12-28T00:40:15.435Z,27.30
2022-12-28T00:41:13.925Z,27.28
2022-12-28T00:42:12.899Z,27.26
2022-12-28T00:43:12.873Z,27.17
2022-12-28T00:44:12.848Z,27.15
2022-12-28T00:45:12.842Z,27.23
2022-12-28T00:46:12.840Z,27.24
2022-12-28T00:47:12.777Z,27.23
2022-12-28T00:48:12.737Z,27.26
2022-12-28T00:49:12.718Z,27.10
2022-12-28T00:50:12.704Z,27.25
2022-12-28T00:51:12.668Z,27.26
2022-12-28T00:52:12.650Z,27.23
2022-12-28T00:53:12.622Z,27.20
2022-12-28T00:54:12.582Z,27.23
2022-12-28T00:55:12.559Z,27.14
2022-12-28T00:56:12.522Z,27.08
2022-12-28T00:57:12.500Z,27.15
2022-12-28T00:58:12.470Z,27.26
2022-12-28T00:59:12.453Z,27.21
2022-12-28T01:00:12.424Z,27.27
2022-12-28T01:01:12.506Z,27.30
2022-12-28T01:02:12.414Z,27.20
2022-12-28T01:03:12.348Z,27.13
2022-12-28T01:04:12.317Z,27.18
2022-12-28T01:05:12.284Z,27.27
2022-12-28T01:06:12.261Z,27.24
2022-12-28T01:07:12.233Z,27.28
2022-12-28T01:08:12.220Z,27.27
2022-12-28T01:09:12.210Z,27.25
2022-12-28T01:10:12.158Z,27.17
2022-12-28T01:11:12.131Z,27.17
2022-12-28T01:12:12.103Z,27.34
2022-12-28T01:13:12.075Z,27.16
2022-12-28T01:14:12.062Z,27.13
2022-12-28T01:15:12.052Z,27.22
2022-12-28T01:16:12.062Z,27.16
2022-12-28T01:17:12.011Z,27.13
2022-12-28T01:18:12.755Z,27.27
2022-12-28T01:19:11.965Z,27.25
2022-12-28T01:20:11.928Z,27.36
2022-12-28T01:21:11.905Z,27.33
2022-12-28T01:22:11.875Z,27.24
2022-12-28T01:23:11.852Z,27.33
2022-12-28T01:24:11.815Z,27.20
2022-12-28T01:25:11.804Z,27.26
2022-12-28T01:26:11.770Z,27.11
2022-12-28T01:27:11.746Z,27.30
2022-12-28T01:28:11.738Z,27.22
2022-12-28T01:29:11.701Z,27.31
2022-12-28T01:30:11.656Z,27.20
2022-12-28T01:31:11.645Z,27.14
2022-12-28T01:32:11.643Z,27.33
2022-12-28T01:33:11.592Z,27.16
2022-12-28T01:34:11.548Z,27.22
2022-12-28T01:35:11.521Z,27.21
2022-12-28T01:36:11.525Z,27.17
2022-12-28T01:37:11.457Z,27.05
2022-12-28T01:38:11.433Z,27.02
2022-12-28T01:39:11.399Z,27.14
2022-12-28T01:40:11.376Z,27.13
2022-12-28T01:41:11.357Z,27.07
2022-12-28T01:42:11.320Z,27.12
2022-12-28T01:43:11.285Z,27.19
2022-12-28T01:44:11.262Z,27.24
2022-12-28T01:45:11.238Z,27.27
2022-12-28T01:46:11.248Z,27.11
2022-12-28T01:47:11.199Z,27.18
2022-12-28T01:48:11.175Z,27.27
2022-12-28T01:49:11.146Z,27.16
2022-12-28T01:50:11.125Z,27.32
2022-12-28T01:51:11.111Z,27.21
2022-12-28T01:52:11.068Z,27.33
2022-12-28T01:53:11.065Z,27.26
2022-12-28T01:54:11.023Z,27.20
2022-12-28T01:55:11.000Z,27.19
2022-12-28T01:56:10.976Z,27.25
2022-12-28T01:57:10.965Z,27.19
2022-12-28T01:58:10.942Z,27.10
2022-12-28T01:59:10.928Z,27.06
2022-12-28T02:00:10.900Z,27.22
2022-12-28T02:01:10.934Z,27.18
2022-12-28T02:02:10.992Z,27.14
2022-12-28T02:03:10.878Z,27.19
2022-12-28T02:04:10.818Z,27.08
2022-12-28T02:05:10.801Z,27.16
2022-12-28T02:06:10.766Z,27.16
2022-12-28T02:07:10.743Z,27.22
2022-12-28T02:08:10.726Z,27.22
2022-12-28T02:09:10.712Z,27.17
2022-12-28T02:10:43.375Z,27.15
2022-12-28T02:11:11.689Z,27.03
2022-12-28T02:12:10.624Z,27.12
2022-12-28T02:13:10.645Z,27.17
2022-12-28T02:14:10.581Z,27.07
2022-12-28T02:15:10.575Z,27.23
2022-12-28T02:16:10.535Z,27.08
2022-12-28T02:17:10.591Z,27.20
2022-12-28T02:18:10.501Z,27.23
2022-12-28T02:19:10.484Z,27.22
2022-12-28T02:20:10.466Z,27.16
2022-12-28T02:21:10.457Z,27.19
2022-12-28T02:22:10.421Z,27.25
2022-12-28T02:23:10.387Z,27.14
2022-12-28T02:24:10.359Z,27.22
2022-12-28T02:25:13.076Z,27.03
2022-12-28T02:26:10.324Z,27.02
2022-12-28T02:27:10.296Z,27.06
2022-12-28T02:28:10.270Z,27.11
2022-12-28T02:29:10.266Z,27.10
2022-12-28T02:30:10.230Z,27.10
2022-12-28T02:31:10.224Z,27.11
2022-12-28T02:32:10.182Z,27.11
2022-12-28T02:33:10.171Z,27.10
2022-12-28T02:34:10.143Z,27.10
2022-12-28T02:35:10.129Z,27.12
2022-12-28T02:36:16.218Z,27.19
2022-12-28T02:37:11.094Z,27.14
2022-12-28T03:48:08.850Z,26.46
2022-12-28T03:49:08.815Z,26.28
2022-12-28T03:50:08.798Z,26.50
2022-12-28T03:51:08.782Z,26.50
2022-12-28T03:52:08.776Z,26.61
2022-12-28T03:53:08.758Z,26.53
2022-12-28T03:54:08.732Z,26.30
2022-12-28T03:55:08.717Z,26.50
2022-12-28T03:56:08.707Z,26.34
2022-12-28T03:57:08.688Z,26.55
2022-12-28T03:58:08.671Z,26.60
2022-12-28T03:59:08.664Z,26.14
2022-12-28T04:00:08.657Z,26.09
2022-12-28T04:01:08.791Z,26.36
2022-12-28T04:02:08.731Z,26.52
2022-12-28T04:03:08.644Z,26.63
2022-12-28T04:04:08.575Z,26.58
2022-12-28T04:05:08.563Z,26.14
2022-12-28T04:06:08.544Z,26.52
2022-12-28T04:07:08.544Z,26.60
2022-12-28T04:08:08.521Z,26.60
2022-12-28T04:10:08.501Z,26.25
2022-12-28T04:11:08.479Z,26.38
2022-12-28T04:12:08.451Z,26.52
2022-12-28T04:13:08.438Z,26.55
2022-12-28T04:14:10.988Z,26.54
2022-12-28T04:15:08.416Z,26.32
2022-12-28T04:16:08.490Z,26.24
2022-12-28T04:17:08.371Z,26.45
2022-12-28T04:18:08.385Z,26.47
2022-12-28T04:19:08.329Z,26.48
2022-12-28T04:20:08.341Z,26.40
2022-12-28T04:21:08.333Z,25.98
2022-12-28T04:22:08.326Z,26.26
2022-12-28T04:23:08.256Z,26.41
2022-12-28T04:24:08.241Z,26.41
2022-12-28T04:25:08.220Z,26.49
2022-12-28T04:26:08.207Z,26.15
2022-12-28T04:27:08.185Z,26.28
2022-12-28T04:28:08.163Z,26.28
2022-12-28T04:29:08.162Z,26.29
2022-12-28T04:30:08.136Z,26.36
2022-12-28T04:31:08.159Z,26.24
2022-12-28T04:32:08.098Z,26.10
2022-12-28T04:33:08.083Z,26.18
2022-12-28T04:34:08.075Z,26.17
2022-12-28T04:35:08.074Z,26.30
2022-12-28T04:36:08.048Z,26.36
2022-12-28T04:37:08.030Z,25.88
2022-12-28T04:38:08.017Z,26.18
2022-12-28T04:39:07.997Z,26.20
2022-12-28T04:40:07.978Z,26.33
2022-12-28T04:41:07.972Z,26.33
2022-12-28T04:42:07.946Z,26.10
2022-12-28T04:43:07.948Z,26.11
2022-12-28T04:44:07.937Z,26.19
2022-12-28T04:45:07.894Z,26.26
2022-12-28T04:46:07.908Z,26.34
2022-12-28T04:47:07.876Z,26.22
2022-12-28T04:48:07.862Z,26.02
2022-12-28T04:49:07.843Z,26.07
2022-12-28T04:50:07.813Z,26.18
2022-12-28T04:51:07.787Z,26.26
2022-12-28T04:52:07.778Z,26.24
2022-12-28T04:53:07.755Z,25.98
2022-12-28T04:54:07.734Z,26.05
2022-12-28T04:55:07.705Z,26.30
2022-12-28T04:56:08.688Z,26.21
2022-12-28T04:57:07.669Z,26.28
2022-12-28T04:58:07.654Z,25.94
2022-12-28T04:59:07.632Z,26.10
2022-12-28T05:00:07.615Z,26.09
2022-12-28T05:01:07.682Z,26.17
2022-12-28T05:02:07.698Z,26.25
2022-12-28T05:03:07.582Z,26.24
2022-12-28T05:04:07.547Z,26.24
2022-12-28T05:05:07.524Z,26.20
2022-12-28T05:06:07.494Z,26.15
2022-12-28T05:07:07.479Z,26.11
2022-12-28T05:08:07.457Z,26.22
2022-12-28T05:09:07.439Z,26.22
2022-12-28T05:10:07.424Z,26.22
2022-12-28T05:11:07.403Z,26.20
2022-12-28T05:12:07.383Z,26.12
2022-12-28T05:13:07.357Z,26.17
2022-12-28T05:14:07.351Z,26.30
2022-12-28T05:15:07.314Z,26.26
2022-12-28T05:16:07.367Z,26.26
2022-12-28T05:17:07.288Z,26.18
2022-12-28T05:18:07.270Z,26.23
2022-12-28T05:19:07.247Z,26.27
2022-12-28T05:20:07.235Z,26.38
2022-12-28T05:21:07.216Z,26.33
2022-12-28T05:22:07.217Z,26.26
2022-12-28T05:23:07.195Z,26.30
2022-12-28T05:24:07.184Z,26.25
2022-12-28T05:25:07.151Z,26.26
2022-12-28T05:26:07.132Z,26.19
2022-12-28T05:27:07.123Z,26.33
2022-12-28T05:28:07.105Z,26.37
2022-12-28T05:29:07.065Z,26.38
2022-12-28T05:30:07.052Z,26.33
2022-12-28T05:31:07.107Z,26.30
2022-12-28T05:32:07.019Z,26.39
2022-12-28T05:33:07.001Z,26.23
2022-12-28T05:34:06.981Z,26.37
2022-12-28T05:35:06.957Z,26.22
2022-12-28T05:36:06.944Z,26.37
2022-12-28T05:37:06.917Z,26.35
2022-12-28T05:38:06.905Z,26.32
2022-12-28T05:39:06.889Z,26.29
2022-12-28T05:40:06.879Z,26.34
2022-12-28T05:41:06.867Z,26.37
2022-12-28T05:42:06.846Z,26.36
2022-12-28T05:43:06.831Z,26.45
2022-12-28T05:44:06.813Z,26.44
2022-12-28T05:45:06.799Z,26.44
2022-12-28T05:46:06.777Z,26.34
2022-12-28T05:47:06.798Z,26.33
2022-12-28T05:48:06.753Z,26.33
2022-12-28T05:49:06.729Z,26.25
2022-12-28T05:50:06.712Z,26.30
2022-12-28T05:51:06.686Z,26.37
2022-12-28T05:52:06.673Z,26.32
2022-12-28T05:53:06.653Z,26.37
2022-12-28T05:54:06.619Z,26.34
2022-12-28T05:55:06.623Z,26.30
2022-12-28T05:56:10.811Z,26.31
2022-12-28T05:57:07.573Z,26.51
2022-12-28T05:58:06.562Z,26.40
2022-12-28T05:59:06.523Z,26.49
2022-12-28T06:00:06.498Z,26.52
2022-12-28T06:01:06.508Z,26.47
2022-12-28T06:02:06.572Z,26.47
2022-12-28T06:03:06.514Z,26.36
2022-12-28T06:04:06.417Z,26.35
2022-12-28T06:05:06.394Z,26.43
2022-12-28T06:06:06.383Z,26.51
2022-12-28T06:07:06.359Z,26.43
2022-12-28T06:08:06.338Z,26.39
2022-12-28T06:09:06.323Z,26.28
2022-12-28T06:10:06.316Z,26.46
2022-12-28T06:11:06.303Z,26.46
2022-12-28T06:12:06.283Z,26.44
2022-12-28T06:13:06.249Z,26.50
2022-12-28T06:14:06.232Z,26.39
2022-12-28T06:15:06.210Z,26.31
2022-12-28T06:16:06.235Z,26.41
2022-12-28T06:17:06.204Z,26.36
2022-12-28T06:18:06.173Z,26.40
2022-12-28T06:19:06.158Z,26.32
2022-12-28T06:20:06.143Z,26.44
2022-12-28T06:21:06.120Z,26.51
2022-12-28T06:22:06.103Z,26.48
2022-12-28T06:23:06.078Z,26.53
2022-12-28T06:24:06.071Z,26.39
2022-12-28T06:25:06.052Z,26.39
2022-12-28T06:26:06.037Z,26.43
2022-12-28T06:27:06.022Z,26.59
2022-12-28T06:28:06.001Z,26.39
2022-12-28T06:29:05.972Z,26.45
2022-12-28T06:30:05.988Z,26.50
2022-12-28T06:31:05.963Z,26.39
2022-12-28T06:32:06.049Z,26.41
2022-12-28T06:33:05.921Z,26.48
2022-12-28T06:34:05.908Z,26.44
2022-12-28T06:35:05.888Z,26.25
2022-12-28T06:36:05.861Z,26.38
2022-12-28T06:37:05.839Z,26.29
2022-12-28T06:38:05.827Z,26.43
2022-12-28T06:39:05.806Z,26.51
2022-12-28T06:40:05.794Z,26.18
2022-12-28T06:41:14.549Z,25.95
2022-12-28T06:42:06.789Z,26.23
2022-12-28T06:43:05.751Z,26.35
2022-12-28T06:44:05.743Z,26.44
2022-12-28T06:45:05.721Z,26.30
2022-12-28T06:46:05.735Z,26.03
2022-12-28T06:47:05.692Z,26.42
2022-12-28T06:48:05.672Z,26.38
2022-12-28T06:49:05.662Z,26.30
2022-12-28T06:50:05.643Z,26.30
2022-12-28T06:51:05.635Z,26.18
2022-12-28T06:52:05.626Z,25.92
2022-12-28T06:53:05.613Z,26.26
2022-12-28T06:54:05.604Z,26.18
2022-12-28T06:55:05.588Z,26.26
2022-12-28T06:56:05.583Z,26.07
2022-12-28T06:57:05.558Z,25.92
2022-12-28T06:58:05.548Z,26.30
2022-12-28T06:59:05.546Z,26.16
2022-12-28T07:00:05.519Z,26.19
2022-12-28T07:01:05.573Z,26.22
2022-12-28T07:02:05.646Z,25.83
2022-12-28T07:03:05.502Z,26.12
2022-12-28T07:04:05.481Z,25.96
2022-12-28T07:05:05.435Z,26.16
2022-12-28T07:06:05.428Z,26.28
2022-12-28T07:07:05.400Z,26.10
2022-12-28T07:08:10.784Z,25.76
2022-12-28T07:10:05.356Z,26.05
2022-12-28T07:11:05.339Z,26.25
2022-12-28T07:12:05.318Z,26.21
2022-12-28T07:13:05.296Z,26.00
2022-12-28T07:14:05.273Z,26.14
2022-12-28T07:15:05.275Z,26.26
2022-12-28T07:16:05.251Z,26.24
2022-12-28T07:17:05.216Z,26.19
2022-12-28T07:18:05.215Z,25.84
2022-12-28T07:19:05.187Z,25.94
2022-12-28T07:20:05.163Z,25.89
2022-12-28T07:21:05.141Z,26.06
2022-12-28T07:22:05.143Z,26.18
2022-12-28T07:23:05.111Z,26.09
2022-12-28T07:24:05.094Z,25.72
2022-12-28T07:25:05.080Z,26.00
2022-12-28T07:26:05.055Z,25.94
2022-12-28T07:27:05.054Z,26.00
2022-12-28T07:28:05.022Z,26.11
2022-12-28T07:29:05.033Z,25.95
2022-12-28T07:30:04.996Z,25.88
2022-12-28T07:31:05.024Z,25.92
2022-12-28T07:32:04.968Z,26.05
2022-12-28T07:33:04.953Z,26.08
2022-12-28T07:34:04.944Z,26.00
2022-12-28T07:35:04.901Z,25.64
2022-12-28T07:36:04.884Z,25.89
2022-12-28T07:37:04.866Z,26.07
2022-12-28T07:38:04.851Z,26.06
2022-12-28T07:57:04.551Z,25.82
2022-12-28T07:59:04.642Z,25.79
2022-12-28T09:15:03.088Z,25.14
2022-12-28T09:16:03.135Z,25.15
2022-12-28T09:17:03.036Z,25.16
2022-12-28T09:18:03.017Z,25.13
2022-12-28T09:19:03.000Z,25.10
2022-12-28T09:20:02.972Z,25.15
2022-12-28T09:21:02.944Z,24.98
2022-12-28T09:22:02.913Z,24.89
2022-12-28T09:23:02.894Z,24.80
2022-12-28T09:24:02.870Z,24.81
2022-12-28T09:25:02.837Z,24.96
2022-12-28T09:26:02.806Z,24.98
2022-12-28T09:27:02.781Z,24.84
2022-12-28T09:28:02.752Z,24.91
2022-12-28T09:29:02.717Z,24.80
2022-12-28T09:30:02.683Z,24.67
2022-12-28T09:31:02.698Z,24.62
2022-12-28T09:32:02.614Z,24.58
2022-12-28T09:33:02.588Z,24.56
2022-12-28T09:35:02.524Z,24.52
2022-12-28T09:36:02.483Z,24.40
2022-12-28T09:37:02.455Z,24.38
2022-12-28T09:38:02.426Z,24.29
2022-12-28T09:39:02.411Z,24.23
2022-12-28T09:40:02.380Z,24.27
2022-12-28T09:41:02.321Z,24.23
2022-12-28T09:42:02.288Z,24.29
2022-12-28T09:43:02.267Z,24.27
2022-12-28T09:44:02.240Z,24.15
2022-12-28T09:45:02.178Z,24.04
2022-12-28T09:46:02.243Z,24.07
2022-12-28T09:47:02.122Z,23.87
2022-12-28T09:48:02.068Z,23.95
2022-12-28T09:49:02.025Z,23.92
2022-12-28T09:50:01.988Z,23.98
2022-12-28T09:51:01.949Z,23.93
2022-12-28T09:52:01.912Z,23.75
2022-12-28T09:53:01.862Z,23.77
2022-12-28T09:54:01.828Z,23.62
2022-12-28T09:55:01.809Z,23.57
2022-12-28T09:56:01.755Z,23.63
2022-12-28T09:57:01.738Z,23.60
2022-12-28T09:58:01.717Z,23.56
2022-12-28T09:59:01.631Z,23.48
2022-12-28T10:00:01.597Z,23.49
2022-12-28T10:01:01.567Z,23.44
2022-12-28T10:02:01.666Z,23.39
2022-12-28T10:03:01.548Z,23.45
2022-12-28T10:04:01.439Z,23.31
2022-12-28T10:05:01.419Z,23.34
2022-12-28T10:06:01.340Z,23.28
2022-12-28T10:07:01.301Z,23.39
2022-12-28T10:08:01.282Z,23.46
2022-12-28T10:09:01.219Z,23.45
2022-12-28T10:10:01.186Z,23.50
2022-12-28T10:11:01.153Z,23.53
2022-12-28T10:12:01.135Z,23.54
2022-12-28T10:13:01.082Z,23.57
2022-12-28T10:14:01.060Z,23.52
2022-12-28T13:18:53.035Z,24.34
2022-12-28T13:19:53.005Z,24.31
2022-12-28T13:20:53.065Z,24.35
2022-12-28T13:21:52.945Z,24.38
2022-12-28T13:22:52.911Z,24.43
2022-12-28T13:23:52.922Z,24.43
2022-12-28T13:24:52.853Z,24.42
2022-12-28T13:25:52.822Z,24.41
2022-12-28T13:26:52.780Z,24.60
2022-12-28T13:27:52.742Z,24.61
2022-12-28T13:28:52.691Z,24.60
2022-12-28T13:29:52.648Z,24.64
2022-12-28T13:30:52.712Z,24.53
2022-12-28T13:31:52.584Z,24.63
2022-12-28T13:32:52.535Z,24.58
2022-12-28T13:33:52.511Z,24.70
2022-12-28T13:34:52.466Z,24.70
2022-12-28T13:35:52.435Z,24.67
2022-12-28T13:36:52.392Z,24.75
2022-12-28T13:37:52.343Z,24.70
2022-12-28T13:38:52.309Z,24.82
2022-12-28T13:39:52.284Z,24.77
2022-12-28T13:40:52.244Z,24.84
2022-12-28T13:41:52.212Z,24.88
2022-12-28T13:42:52.177Z,24.72
2022-12-28T13:43:52.132Z,24.80
2022-12-28T13:44:52.117Z,24.78
2022-12-28T13:45:52.170Z,24.92
2022-12-28T13:46:52.051Z,24.88
2022-12-28T13:47:52.023Z,24.85
2022-12-28T13:48:51.990Z,24.86
2022-12-28T13:49:51.959Z,24.94
2022-12-28T13:51:53.703Z,25.06
2022-12-28T13:52:51.898Z,25.05
2022-12-28T13:53:51.851Z,24.98
2022-12-28T13:54:51.818Z,24.98
2022-12-28T13:55:51.787Z,24.91
2022-12-28T13:56:51.757Z,25.10
2022-12-28T13:57:58.919Z,24.86
2022-12-28T13:58:52.706Z,24.99
2022-12-28T13:59:51.664Z,25.02
2022-12-28T14:00:51.778Z,24.97
2022-12-28T14:01:51.673Z,24.97
2022-12-28T14:02:51.601Z,25.01
2022-12-28T14:03:51.564Z,25.13
2022-12-28T14:04:53.021Z,25.10
2022-12-28T14:05:51.598Z,24.98
2022-12-28T14:06:51.474Z,24.98
2022-12-28T14:07:51.443Z,25.06
2022-12-28T14:08:51.408Z,25.09
2022-12-28T14:09:51.389Z,25.16
2022-12-28T14:10:51.355Z,25.19
2022-12-28T14:11:51.349Z,25.16
2022-12-28T14:12:51.307Z,25.17
2022-12-28T14:13:51.271Z,25.06
2022-12-28T14:14:51.240Z,24.99
2022-12-28T14:15:51.262Z,25.05
2022-12-28T14:16:51.219Z,25.18
2022-12-28T14:17:51.183Z,25.10
2022-12-28T14:18:51.124Z,25.16
2022-12-28T14:19:51.085Z,25.19
2022-12-28T16:46:47.048Z,25.47
2022-12-28T16:47:47.029Z,25.53
2022-12-28T16:48:47.004Z,25.62
2022-12-28T16:49:46.981Z,25.66
2022-12-28T16:50:46.955Z,25.60
2022-12-28T16:51:46.934Z,25.63
2022-12-28T16:52:46.921Z,25.54
2022-12-28T16:53:46.886Z,25.61
2022-12-28T16:54:46.861Z,25.69
2022-12-28T16:55:46.843Z,25.55
2022-12-28T16:56:46.814Z,25.62
2022-12-28T16:57:46.802Z,25.59
2022-12-28T16:58:49.269Z,25.60
2022-12-28T16:59:46.775Z,25.55
2022-12-28T17:00:46.839Z,25.58
2022-12-28T17:01:47.010Z,25.73
2022-12-28T17:02:47.005Z,25.63
2022-12-28T17:03:46.656Z,25.60
2022-12-28T17:04:46.633Z,25.58
2022-12-28T17:05:46.614Z,25.75
2022-12-28T17:06:46.619Z,25.74
2022-12-28T17:07:46.560Z,25.64
2022-12-28T17:08:46.546Z,25.67
2022-12-28T17:09:50.130Z,25.62
2022-12-28T17:10:46.489Z,25.72
2022-12-28T17:11:46.503Z,25.75
2022-12-28T17:12:46.440Z,25.73
2022-12-28T17:13:46.416Z,25.62
2022-12-28T17:14:46.402Z,25.69
2022-12-28T17:15:46.357Z,25.64
2022-12-28T17:16:46.403Z,25.63
2022-12-28T17:17:46.300Z,25.75
2022-12-28T17:18:46.282Z,25.59
2022-12-28T17:19:46.249Z,25.75
2022-12-28T17:20:46.240Z,25.79
2022-12-28T17:21:46.204Z,25.80
2022-12-28T17:22:46.183Z,25.68
2022-12-28T17:23:46.170Z,25.72
2022-12-28T17:24:46.128Z,25.71
2022-12-28T17:25:46.091Z,25.68
2022-12-28T17:26:46.080Z,25.72
2022-12-28T17:27:46.033Z,25.72
2022-12-28T17:28:46.026Z,25.80
2022-12-28T17:29:45.983Z,25.59
2022-12-28T17:30:45.958Z,25.72
2022-12-28T17:31:45.965Z,25.64
2022-12-28T17:32:45.904Z,25.66
2022-12-28T17:33:45.872Z,25.60
2022-12-28T17:34:45.852Z,25.67
2022-12-28T17:35:45.811Z,25.66
2022-12-28T17:36:45.790Z,25.66
2022-12-28T17:37:45.752Z,25.58
2022-12-28T17:38:45.732Z,25.69
2022-12-28T17:39:45.714Z,25.70
2022-12-28T17:40:45.675Z,25.75
2022-12-28T17:41:45.643Z,25.74
2022-12-28T17:42:45.622Z,25.78
2022-12-28T17:43:45.586Z,25.65
2022-12-28T17:44:45.587Z,25.67
2022-12-28T17:45:45.565Z,25.67
2022-12-28T17:46:45.522Z,25.71
2022-12-28T17:47:45.491Z,25.65
2022-12-28T17:48:45.468Z,25.73
2022-12-28T17:49:45.445Z,25.73
2022-12-28T17:50:45.427Z,25.70
2022-12-28T17:51:45.415Z,25.66
2022-12-28T17:52:45.374Z,25.70
2022-12-28T17:53:45.354Z,25.57
2022-12-28T17:54:45.330Z,25.70
2022-12-28T17:55:45.309Z,25.67
2022-12-28T17:56:45.304Z,25.67
2022-12-28T17:57:45.266Z,25.69
2022-12-28T17:58:45.252Z,25.70
2022-12-28T17:59:45.238Z,25.62
2022-12-28T18:00:45.187Z,25.65
2022-12-28T18:01:45.268Z,25.68
2022-12-28T18:02:45.384Z,25.65
2022-12-28T18:03:45.145Z,25.55
2022-12-28T18:04:45.099Z,25.72
2022-12-28T18:05:45.067Z,25.69
2022-12-28T18:06:45.044Z,25.72
2022-12-28T18:07:45.024Z,25.65
2022-12-28T18:08:44.990Z,25.61
2022-12-28T18:09:44.963Z,25.67
2022-12-28T18:10:44.940Z,25.60
2022-12-28T18:11:44.915Z,25.64
2022-12-28T18:12:44.893Z,25.65
2022-12-28T18:13:44.863Z,25.52
2022-12-28T18:14:44.839Z,25.71
2022-12-28T18:15:44.812Z,25.65
2022-12-28T18:16:44.829Z,25.58
2022-12-28T18:17:44.769Z,25.58
2022-12-28T18:18:44.749Z,25.62
2022-12-28T18:19:44.722Z,25.58
2022-12-28T18:20:44.694Z,25.62
2022-12-28T18:21:44.659Z,25.66
2022-12-28T18:22:44.635Z,25.77
2022-12-28T18:23:44.618Z,25.60
2022-12-28T18:24:44.587Z,25.63
2022-12-28T18:25:44.554Z,25.67
2022-12-28T18:26:44.534Z,25.71
2022-12-28T18:27:44.500Z,25.79
2022-12-28T18:28:44.489Z,25.62
2022-12-28T18:29:44.442Z,25.68
2022-12-28T18:30:44.457Z,25.72
2022-12-28T18:31:44.457Z,25.70
2022-12-28T18:32:44.367Z,25.62
2022-12-28T18:33:44.352Z,25.58
2022-12-28T18:34:44.328Z,25.70
2022-12-28T18:35:44.299Z,25.71
2022-12-28T18:36:44.276Z,25.70
2022-12-28T18:37:44.267Z,25.73
2022-12-28T18:38:44.252Z,25.73
2022-12-28T18:39:44.240Z,25.71
2022-12-28T18:40:44.216Z,25.59
2022-12-28T18:41:44.191Z,25.71
2022-12-28T18:42:44.190Z,25.69
2022-12-28T18:43:44.237Z,25.67
2022-12-28T18:44:44.131Z,25.67
2022-12-28T18:45:44.124Z,25.78
2022-12-28T18:46:44.249Z,25.63
2022-12-28T18:47:44.082Z,25.69
2022-12-28T18:48:44.056Z,25.67
2022-12-28T18:49:47.263Z,25.67
2022-12-28T18:50:44.010Z,25.78
2022-12-28T18:51:43.985Z,25.61
2022-12-28T18:52:43.971Z,25.53
2022-12-28T18:53:43.932Z,25.58
2022-12-28T18:54:43.919Z,25.36
2022-12-28T18:55:45.586Z,25.55
2022-12-28T18:56:43.890Z,25.54
2022-12-28T18:57:43.871Z,25.65
2022-12-28T18:58:43.854Z,25.46
2022-12-28T18:59:43.821Z,25.36
2022-12-28T19:00:43.793Z,25.35
2022-12-28T19:02:44.983Z,25.59
2022-12-28T19:03:44.054Z,25.46
2022-12-28T19:04:43.815Z,25.31
2022-12-28T19:05:43.690Z,25.43
2022-12-28T19:06:43.667Z,25.38
2022-12-28T19:07:49.125Z,25.48
2022-12-28T19:08:44.628Z,25.51
2022-12-28T19:09:43.603Z,25.33
2022-12-28T19:10:43.586Z,25.31
2022-12-28T19:11:43.567Z,25.36
2022-12-28T19:12:43.546Z,25.42
2022-12-28T19:13:43.513Z,25.49
2022-12-28T19:14:43.502Z,25.32
2022-12-28T19:15:43.502Z,25.17
2022-12-28T19:16:43.499Z,25.41
2022-12-28T19:17:43.426Z,25.34
2022-12-28T19:18:43.414Z,25.42
2022-12-28T19:19:43.378Z,25.32
2022-12-28T19:20:43.354Z,25.17
2022-12-28T19:21:43.337Z,25.09
2022-12-28T19:22:43.317Z,25.21
2022-12-28T19:23:43.342Z,25.28
2022-12-28T19:24:43.276Z,25.39
2022-12-28T19:25:43.308Z,25.12
2022-12-28T19:26:43.230Z,25.25
2022-12-28T19:27:43.205Z,25.12
2022-12-28T19:28:43.190Z,25.25
2022-12-28T19:29:43.171Z,25.37
2022-12-28T19:30:43.154Z,25.12
2022-12-28T19:31:43.187Z,25.14
2022-12-28T19:32:43.123Z,25.19
2022-12-28T19:33:43.110Z,25.12
2022-12-28T19:34:43.080Z,25.32
2022-12-28T19:35:43.052Z,25.22
2022-12-28T19:36:43.021Z,25.11
2022-12-28T19:37:43.002Z,25.11
2022-12-28T19:38:42.978Z,25.12
2022-12-28T19:39:42.957Z,25.22
2022-12-28T19:40:42.929Z,25.27
2022-12-28T19:41:42.895Z,25.16
2022-12-28T19:42:42.870Z,25.04
2022-12-28T19:43:42.845Z,25.19
2022-12-28T19:44:42.837Z,25.22
2022-12-28T19:45:42.803Z,25.24
2022-12-28T19:46:42.865Z,25.10
2022-12-28T19:47:42.775Z,24.89
2022-12-28T19:48:42.803Z,25.14
2022-12-28T19:49:42.739Z,25.11
2022-12-28T19:50:42.692Z,25.18
2022-12-28T19:51:42.675Z,25.19
2022-12-28T19:52:42.650Z,24.88
2022-12-28T19:53:42.639Z,24.91
2022-12-28T19:54:42.629Z,24.91
2022-12-28T19:55:42.614Z,25.09
2022-12-28T19:56:42.589Z,25.19
2022-12-28T19:57:42.587Z,25.05
2022-12-28T19:58:42.552Z,24.89
2022-12-28T19:59:42.560Z,25.00
2022-12-28T20:00:42.514Z,25.11
2022-12-28T20:01:42.640Z,25.23
2022-12-28T20:02:42.614Z,25.12
2022-12-28T20:03:42.598Z,24.78
2022-12-28T20:04:42.436Z,24.97
2022-12-28T20:05:42.409Z,25.11
2022-12-28T20:06:42.416Z,25.08
2022-12-28T20:07:42.358Z,25.13
2022-12-28T20:08:42.379Z,25.01
2022-12-28T20:09:42.306Z,24.98
2022-12-28T20:10:42.290Z,25.05
2022-12-28T20:11:42.323Z,25.05
2022-12-28T20:12:42.247Z,25.10
2022-12-28T20:13:42.229Z,24.98
2022-12-28T20:14:42.210Z,24.81
2022-12-28T20:15:42.190Z,25.00
2022-12-28T20:16:42.311Z,24.98
2022-12-28T20:17:42.154Z,25.12
2022-12-28T20:18:42.132Z,24.97
2022-12-28T20:19:42.105Z,24.77
2022-12-28T20:21:17.211Z,24.79
2022-12-28T20:22:42.046Z,25.04
2022-12-28T20:23:42.029Z,25.12
2022-12-28T20:24:42.019Z,24.86
2022-12-28T20:25:41.988Z,24.92
2022-12-28T20:26:41.972Z,24.89
2022-12-28T20:27:41.942Z,24.94
2022-12-28T20:28:41.911Z,25.16
2022-12-28T20:29:41.905Z,25.01
2022-12-28T20:30:41.891Z,24.67
2022-12-28T20:31:41.965Z,24.82
2022-12-28T20:32:44.927Z,24.81
2022-12-28T20:33:41.873Z,24.99
2022-12-28T20:34:41.818Z,25.02
2022-12-28T20:35:41.810Z,24.90
2022-12-28T20:36:41.782Z,24.82
2022-12-28T20:37:41.765Z,24.93
2022-12-28T20:38:41.757Z,25.09
2022-12-28T20:39:41.726Z,25.09
2022-12-28T20:40:41.707Z,24.89
2022-12-28T20:41:41.695Z,24.70
2022-12-28T20:42:41.672Z,24.85
2022-12-28T20:43:41.647Z,24.90
2022-12-28T20:44:41.638Z,25.10
2022-12-28T20:45:41.609Z,25.03
2022-12-28T20:46:41.628Z,24.94
2022-12-28T20:47:41.584Z,24.90
2022-12-28T20:48:41.564Z,24.87
2022-12-28T20:49:41.542Z,24.99
2022-12-28T20:50:41.523Z,25.05
2022-12-28T20:51:41.504Z,24.76
2022-12-28T20:52:41.489Z,24.70
2022-12-28T20:53:41.474Z,24.88
2022-12-28T20:54:41.468Z,25.01
2022-12-28T20:55:41.437Z,24.85
2022-12-28T20:56:41.425Z,24.84
2022-12-28T20:57:41.402Z,24.88
2022-12-28T20:58:41.402Z,24.71
2022-12-28T20:59:41.365Z,24.85
2022-12-28T21:00:41.390Z,24.73
2022-12-28T21:01:41.396Z,24.85
2022-12-28T21:02:41.315Z,24.93
2022-12-28T21:03:41.304Z,25.03
2022-12-28T21:04:41.258Z,24.95
2022-12-28T21:05:41.244Z,24.67
2022-12-28T21:06:41.228Z,24.75
2022-12-28T21:11:41.127Z,24.70
2022-12-28T21:12:41.119Z,24.82
2022-12-28T21:13:44.456Z,24.75
2022-12-28T21:14:41.096Z,24.91
2022-12-28T21:15:41.074Z,24.67